OBBI/BAH METAR and TAF weather

Enter ICAO airport designator
Station Type Date Time Source
OBBI METAR 2022/05/23 15:00 UTC NOAA

OBBI 231500Z 36008KT 340V040 CAVOK 33/17 Q0999 NOSIG


Station Type Date Time Source
OBBI Decoded METAR 2022/05/23 15:00 UTC NOAA

Bahrain International Airport , Bahrain (OBBI) 26-16N 050-39E 2M
May 23, 2022 - 11:00 AM EDT / 2022.05.23 1500 UTC
Wind: from the N (360 degrees) at 9 MPH (8 KT) (direction variable):0
Visibility: greater than 7 mile(s):0
Temperature: 91 F (33 C)
Dew Point: 62 F (17 C)
Relative Humidity: 38%
Pressure (altimeter): 29.50 in. Hg (0999 hPa)
ob: OBBI 231500Z 36008KT 340V040 CAVOK 33/17 Q0999 NOSIG
cycle: 15

Station Type Date Time Source
OBBI TAF 2022/05/23 12:44 UTC NOAA

TAF OBBI 231100Z 2312/2418 34015KT CAVOK
BECMG 2314/2316 05010KT NSC
BECMG 2320/2322 34020KT 5000 BLDU
TEMPO 2321/2406 3000 DU PROB30
TEMPO 2322/2403 0800 VV///

Example: see airport list